sensor_id;sensor_type;location;lat;lon;timestamp;P1;durP1;ratioP1;P2;durP2;ratioP2
64186;SDS011;50491;39.484;-8.540;2023-08-08T00:07:43;15.18;;;2.30;;
64186;SDS011;50491;39.484;-8.540;2023-08-08T00:10:20;6.15;;;2.08;;
64186;SDS011;50491;39.484;-8.540;2023-08-08T00:15:18;5.03;;;2.13;;
64186;SDS011;50491;39.484;-8.540;2023-08-08T00:17:37;9.18;;;2.17;;
64186;SDS011;50491;39.484;-8.540;2023-08-08T00:22:16;5.28;;;2.00;;
64186;SDS011;50491;39.484;-8.540;2023-08-08T00:27:13;7.53;;;2.33;;
64186;SDS011;50491;39.484;-8.540;2023-08-08T00:29:32;4.70;;;2.25;;
64186;SDS011;50491;39.484;-8.540;2023-08-08T00:31:52;8.98;;;2.47;;
64186;SDS011;50491;39.484;-8.540;2023-08-08T00:34:10;6.47;;;2.10;;
64186;SDS011;50491;39.484;-8.540;2023-08-08T00:36:29;5.45;;;2.20;;
64186;SDS011;50491;39.484;-8.540;2023-08-08T00:41:19;3.20;;;1.92;;
64186;SDS011;50491;39.484;-8.540;2023-08-08T00:43:39;10.50;;;2.23;;
64186;SDS011;50491;39.484;-8.540;2023-08-08T00:45:58;4.18;;;1.85;;
64186;SDS011;50491;39.484;-8.540;2023-08-08T00:47:59;15.27;;;3.65;;
64186;SDS011;50491;39.484;-8.540;2023-08-08T00:50:00;7.10;;;2.08;;
64186;SDS011;50491;39.484;-8.540;2023-08-08T00:52:19;4.75;;;1.70;;
64186;SDS011;50491;39.484;-8.540;2023-08-08T00:54:57;3.67;;;2.00;;
64186;SDS011;50491;39.484;-8.540;2023-08-08T00:57:17;10.43;;;2.30;;
64186;SDS011;50491;39.484;-8.540;2023-08-08T00:59:37;6.72;;;2.22;;
64186;SDS011;50491;39.484;-8.540;2023-08-08T01:01:37;5.70;;;1.88;;
64186;SDS011;50491;39.484;-8.540;2023-08-08T01:03:38;7.82;;;2.13;;
64186;SDS011;50491;39.484;-8.540;2023-08-08T01:05:41;9.32;;;1.90;;
64186;SDS011;50491;39.484;-8.540;2023-08-08T01:08:03;7.40;;;2.22;;
64186;SDS011;50491;39.484;-8.540;2023-08-08T01:10:15;6.68;;;1.98;;
64186;SDS011;50491;39.484;-8.540;2023-08-08T01:12:40;7.85;;;2.00;;
64186;SDS011;50491;39.484;-8.540;2023-08-08T01:14:44;17.92;;;2.35;;
64186;SDS011;50491;39.484;-8.540;2023-08-08T01:17:03;2.75;;;1.80;;
64186;SDS011;50491;39.484;-8.540;2023-08-08T01:19:27;9.48;;;2.55;;
64186;SDS011;50491;39.484;-8.540;2023-08-08T01:21:47;4.07;;;2.70;;
64186;SDS011;50491;39.484;-8.540;2023-08-08T01:24:17;5.70;;;1.80;;
64186;SDS011;50491;39.484;-8.540;2023-08-08T01:26:20;4.97;;;2.10;;
64186;SDS011;50491;39.484;-8.540;2023-08-08T01:28:22;10.15;;;2.35;;
64186;SDS011;50491;39.484;-8.540;2023-08-08T01:32:30;5.68;;;2.33;;
64186;SDS011;50491;39.484;-8.540;2023-08-08T01:34:31;6.60;;;2.40;;
64186;SDS011;50491;39.484;-8.540;2023-08-08T01:37:04;4.68;;;2.20;;
64186;SDS011;50491;39.484;-8.540;2023-08-08T01:39:20;10.45;;;2.42;;
64186;SDS011;50491;39.484;-8.540;2023-08-08T01:41:42;5.00;;;2.00;;
64186;SDS011;50491;39.484;-8.540;2023-08-08T01:44:03;6.47;;;2.75;;
64186;SDS011;50491;39.484;-8.540;2023-08-08T01:46:04;7.07;;;2.70;;
64186;SDS011;50491;39.484;-8.540;2023-08-08T01:48:27;4.80;;;2.22;;
64186;SDS011;50491;39.484;-8.540;2023-08-08T01:50:47;11.77;;;2.40;;
64186;SDS011;50491;39.484;-8.540;2023-08-08T01:52:48;6.13;;;2.30;;
64186;SDS011;50491;39.484;-8.540;2023-08-08T01:55:07;6.72;;;2.22;;
64186;SDS011;50491;39.484;-8.540;2023-08-08T01:57:33;6.60;;;2.30;;
64186;SDS011;50491;39.484;-8.540;2023-08-08T01:59:52;6.85;;;2.35;;
64186;SDS011;50491;39.484;-8.540;2023-08-08T02:01:53;3.53;;;1.90;;
64186;SDS011;50491;39.484;-8.540;2023-08-08T02:08:50;6.65;;;2.08;;
64186;SDS011;50491;39.484;-8.540;2023-08-08T02:11:10;2.83;;;1.85;;
64186;SDS011;50491;39.484;-8.540;2023-08-08T02:13:10;3.13;;;2.22;;
64186;SDS011;50491;39.484;-8.540;2023-08-08T02:18:07;5.53;;;2.33;;
64186;SDS011;50491;39.484;-8.540;2023-08-08T02:20:10;5.57;;;1.95;;
64186;SDS011;50491;39.484;-8.540;2023-08-08T02:22:12;4.38;;;2.00;;
64186;SDS011;50491;39.484;-8.540;2023-08-08T02:24:12;6.88;;;2.33;;
64186;SDS011;50491;39.484;-8.540;2023-08-08T02:26:14;4.55;;;2.05;;
64186;SDS011;50491;39.484;-8.540;2023-08-08T02:28:15;5.70;;;2.25;;
64186;SDS011;50491;39.484;-8.540;2023-08-08T02:35:19;6.43;;;2.17;;
64186;SDS011;50491;39.484;-8.540;2023-08-08T02:37:19;6.07;;;2.10;;
64186;SDS011;50491;39.484;-8.540;2023-08-08T02:39:20;5.10;;;1.85;;
64186;SDS011;50491;39.484;-8.540;2023-08-08T02:41:21;5.95;;;2.55;;
64186;SDS011;50491;39.484;-8.540;2023-08-08T02:43:22;6.53;;;1.98;;
64186;SDS011;50491;39.484;-8.540;2023-08-08T02:45:23;7.55;;;2.55;;
64186;SDS011;50491;39.484;-8.540;2023-08-08T02:47:23;4.32;;;2.10;;
64186;SDS011;50491;39.484;-8.540;2023-08-08T02:49:43;4.25;;;1.90;;
64186;SDS011;50491;39.484;-8.540;2023-08-08T02:51:44;5.93;;;1.88;;
64186;SDS011;50491;39.484;-8.540;2023-08-08T02:54:03;5.32;;;2.13;;
64186;SDS011;50491;39.484;-8.540;2023-08-08T02:58:30;6.15;;;2.15;;
64186;SDS011;50491;39.484;-8.540;2023-08-08T03:00:32;4.65;;;2.13;;
64186;SDS011;50491;39.484;-8.540;2023-08-08T03:02:34;3.92;;;1.95;;
64186;SDS011;50491;39.484;-8.540;2023-08-08T03:04:53;8.05;;;2.53;;
64186;SDS011;50491;39.484;-8.540;2023-08-08T03:06:57;4.73;;;2.07;;
64186;SDS011;50491;39.484;-8.540;2023-08-08T03:08:57;5.70;;;2.30;;
64186;SDS011;50491;39.484;-8.540;2023-08-08T03:11:24;4.20;;;2.13;;
64186;SDS011;50491;39.484;-8.540;2023-08-08T03:13:25;7.55;;;2.10;;
64186;SDS011;50491;39.484;-8.540;2023-08-08T03:15:44;13.57;;;3.08;;
64186;SDS011;50491;39.484;-8.540;2023-08-08T03:18:10;6.15;;;2.05;;
64186;SDS011;50491;39.484;-8.540;2023-08-08T03:20:10;6.75;;;2.75;;
64186;SDS011;50491;39.484;-8.540;2023-08-08T03:22:12;7.55;;;2.42;;
64186;SDS011;50491;39.484;-8.540;2023-08-08T03:24:13;6.38;;;2.33;;
64186;SDS011;50491;39.484;-8.540;2023-08-08T03:26:13;5.82;;;2.45;;
64186;SDS011;50491;39.484;-8.540;2023-08-08T03:28:14;6.25;;;2.30;;
64186;SDS011;50491;39.484;-8.540;2023-08-08T03:30:15;4.97;;;2.63;;
64186;SDS011;50491;39.484;-8.540;2023-08-08T03:32:17;10.95;;;3.13;;
64186;SDS011;50491;39.484;-8.540;2023-08-08T03:34:18;6.07;;;2.70;;
64186;SDS011;50491;39.484;-8.540;2023-08-08T03:36:19;4.30;;;2.85;;
64186;SDS011;50491;39.484;-8.540;2023-08-08T03:40:59;13.88;;;2.80;;
64186;SDS011;50491;39.484;-8.540;2023-08-08T03:43:00;5.13;;;2.63;;
64186;SDS011;50491;39.484;-8.540;2023-08-08T03:47:20;6.13;;;3.00;;
64186;SDS011;50491;39.484;-8.540;2023-08-08T03:49:22;8.85;;;3.20;;
64186;SDS011;50491;39.484;-8.540;2023-08-08T03:51:23;3.75;;;2.55;;
64186;SDS011;50491;39.484;-8.540;2023-08-08T03:53:23;6.28;;;3.00;;
64186;SDS011;50491;39.484;-8.540;2023-08-08T03:57:50;5.55;;;3.25;;
64186;SDS011;50491;39.484;-8.540;2023-08-08T03:59:52;8.88;;;3.00;;
64186;SDS011;50491;39.484;-8.540;2023-08-08T04:01:52;8.80;;;3.25;;
64186;SDS011;50491;39.484;-8.540;2023-08-08T04:03:53;7.22;;;3.13;;
64186;SDS011;50491;39.484;-8.540;2023-08-08T04:06:12;11.63;;;3.08;;
64186;SDS011;50491;39.484;-8.540;2023-08-08T04:08:13;6.95;;;2.50;;
64186;SDS011;50491;39.484;-8.540;2023-08-08T04:10:15;6.43;;;3.20;;
64186;SDS011;50491;39.484;-8.540;2023-08-08T04:12:16;13.02;;;3.35;;
64186;SDS011;50491;39.484;-8.540;2023-08-08T04:17:14;17.10;;;5.15;;
64186;SDS011;50491;39.484;-8.540;2023-08-08T04:19:14;4.95;;;3.13;;
64186;SDS011;50491;39.484;-8.540;2023-08-08T04:31:33;16.83;;;3.20;;
64186;SDS011;50491;39.484;-8.540;2023-08-08T04:33:59;6.32;;;3.25;;
64186;SDS011;50491;39.484;-8.540;2023-08-08T04:36:19;5.97;;;3.08;;
64186;SDS011;50491;39.484;-8.540;2023-08-08T04:38:20;7.88;;;2.85;;
64186;SDS011;50491;39.484;-8.540;2023-08-08T04:40:39;6.93;;;3.00;;
64186;SDS011;50491;39.484;-8.540;2023-08-08T04:42:40;8.77;;;2.95;;
64186;SDS011;50491;39.484;-8.540;2023-08-08T04:45:00;3.45;;;2.83;;
64186;SDS011;50491;39.484;-8.540;2023-08-08T04:47:01;5.70;;;3.00;;
64186;SDS011;50491;39.484;-8.540;2023-08-08T04:49:28;7.35;;;2.97;;
64186;SDS011;50491;39.484;-8.540;2023-08-08T04:51:54;5.55;;;3.17;;
64186;SDS011;50491;39.484;-8.540;2023-08-08T04:53:55;6.78;;;2.80;;
64186;SDS011;50491;39.484;-8.540;2023-08-08T04:55:55;13.15;;;3.08;;
64186;SDS011;50491;39.484;-8.540;2023-08-08T04:57:56;6.30;;;3.15;;
64186;SDS011;50491;39.484;-8.540;2023-08-08T04:59:57;6.47;;;2.92;;
64186;SDS011;50491;39.484;-8.540;2023-08-08T05:01:57;5.45;;;2.40;;
64186;SDS011;50491;39.484;-8.540;2023-08-08T05:04:17;5.53;;;2.58;;
64186;SDS011;50491;39.484;-8.540;2023-08-08T05:06:18;5.18;;;2.83;;
64186;SDS011;50491;39.484;-8.540;2023-08-08T05:08:37;6.57;;;2.55;;
64186;SDS011;50491;39.484;-8.540;2023-08-08T05:10:38;9.52;;;2.85;;
64186;SDS011;50491;39.484;-8.540;2023-08-08T05:12:39;6.68;;;2.50;;
64186;SDS011;50491;39.484;-8.540;2023-08-08T05:14:40;5.63;;;2.80;;
64186;SDS011;50491;39.484;-8.540;2023-08-08T05:16:59;6.40;;;2.78;;
64186;SDS011;50491;39.484;-8.540;2023-08-08T05:19:20;5.13;;;2.60;;
64186;SDS011;50491;39.484;-8.540;2023-08-08T05:21:20;6.70;;;2.95;;
64186;SDS011;50491;39.484;-8.540;2023-08-08T05:23:21;11.45;;;3.33;;
64186;SDS011;50491;39.484;-8.540;2023-08-08T05:25:41;5.82;;;2.78;;
64186;SDS011;50491;39.484;-8.540;2023-08-08T05:27:42;7.20;;;3.28;;
64186;SDS011;50491;39.484;-8.540;2023-08-08T05:29:43;8.80;;;3.00;;
64186;SDS011;50491;39.484;-8.540;2023-08-08T05:31:43;12.32;;;3.95;;
64186;SDS011;50491;39.484;-8.540;2023-08-08T05:34:02;7.32;;;3.30;;
64186;SDS011;50491;39.484;-8.540;2023-08-08T05:36:03;6.70;;;3.00;;
64186;SDS011;50491;39.484;-8.540;2023-08-08T05:38:22;4.68;;;3.25;;
64186;SDS011;50491;39.484;-8.540;2023-08-08T05:48:44;6.15;;;3.45;;
64186;SDS011;50491;39.484;-8.540;2023-08-08T05:56:00;8.95;;;3.10;;
64186;SDS011;50491;39.484;-8.540;2023-08-08T05:58:01;6.90;;;3.20;;
64186;SDS011;50491;39.484;-8.540;2023-08-08T06:00:20;6.03;;;3.03;;
64186;SDS011;50491;39.484;-8.540;2023-08-08T06:02:21;8.20;;;3.30;;
64186;SDS011;50491;39.484;-8.540;2023-08-08T06:04:21;9.35;;;3.90;;
64186;SDS011;50491;39.484;-8.540;2023-08-08T06:06:22;8.73;;;3.50;;
64186;SDS011;50491;39.484;-8.540;2023-08-08T06:11:27;5.32;;;3.08;;
64186;SDS011;50491;39.484;-8.540;2023-08-08T06:18:25;6.90;;;3.10;;
64186;SDS011;50491;39.484;-8.540;2023-08-08T06:20:26;7.75;;;3.05;;
64186;SDS011;50491;39.484;-8.540;2023-08-08T06:22:47;6.10;;;3.10;;
64186;SDS011;50491;39.484;-8.540;2023-08-08T06:24:47;10.73;;;3.22;;
64186;SDS011;50491;39.484;-8.540;2023-08-08T06:26:48;5.03;;;3.05;;
64186;SDS011;50491;39.484;-8.540;2023-08-08T06:31:45;7.78;;;3.17;;
64186;SDS011;50491;39.484;-8.540;2023-08-08T06:33:46;7.80;;;3.17;;
64186;SDS011;50491;39.484;-8.540;2023-08-08T06:35:46;8.98;;;3.17;;
64186;SDS011;50491;39.484;-8.540;2023-08-08T06:38:05;5.57;;;3.15;;
64186;SDS011;50491;39.484;-8.540;2023-08-08T06:40:25;10.90;;;2.50;;
64186;SDS011;50491;39.484;-8.540;2023-08-08T06:42:44;6.18;;;3.00;;
64186;SDS011;50491;39.484;-8.540;2023-08-08T06:45:04;9.30;;;3.78;;
64186;SDS011;50491;39.484;-8.540;2023-08-08T06:47:24;18.80;;;3.83;;
64186;SDS011;50491;39.484;-8.540;2023-08-08T06:49:49;14.63;;;4.00;;
64186;SDS011;50491;39.484;-8.540;2023-08-08T06:51:50;11.63;;;3.13;;
64186;SDS011;50491;39.484;-8.540;2023-08-08T06:53:55;7.88;;;3.45;;
64186;SDS011;50491;39.484;-8.540;2023-08-08T06:56:14;6.35;;;2.85;;
64186;SDS011;50491;39.484;-8.540;2023-08-08T06:58:40;15.07;;;3.55;;
64186;SDS011;50491;39.484;-8.540;2023-08-08T07:00:59;8.52;;;3.45;;
64186;SDS011;50491;39.484;-8.540;2023-08-08T07:03:18;9.32;;;3.10;;
64186;SDS011;50491;39.484;-8.540;2023-08-08T07:05:19;7.07;;;3.10;;
64186;SDS011;50491;39.484;-8.540;2023-08-08T07:07:39;10.77;;;3.55;;
64186;SDS011;50491;39.484;-8.540;2023-08-08T07:09:39;9.77;;;4.20;;
64186;SDS011;50491;39.484;-8.540;2023-08-08T07:11:41;6.57;;;3.08;;
64186;SDS011;50491;39.484;-8.540;2023-08-08T07:14:01;5.20;;;2.75;;
64186;SDS011;50491;39.484;-8.540;2023-08-08T07:16:20;7.30;;;3.10;;
64186;SDS011;50491;39.484;-8.540;2023-08-08T07:18:21;7.53;;;4.03;;
64186;SDS011;50491;39.484;-8.540;2023-08-08T07:20:40;9.88;;;3.65;;
64186;SDS011;50491;39.484;-8.540;2023-08-08T07:22:41;13.80;;;3.70;;
64186;SDS011;50491;39.484;-8.540;2023-08-08T07:24:41;8.00;;;3.53;;
64186;SDS011;50491;39.484;-8.540;2023-08-08T07:26:42;15.68;;;4.25;;
64186;SDS011;50491;39.484;-8.540;2023-08-08T07:31:27;7.07;;;3.40;;
64186;SDS011;50491;39.484;-8.540;2023-08-08T07:33:27;9.38;;;3.65;;
64186;SDS011;50491;39.484;-8.540;2023-08-08T07:35:56;10.70;;;4.32;;
64186;SDS011;50491;39.484;-8.540;2023-08-08T07:37:57;11.50;;;4.35;;
64186;SDS011;50491;39.484;-8.540;2023-08-08T07:39:58;10.30;;;4.05;;
64186;SDS011;50491;39.484;-8.540;2023-08-08T07:41:59;13.45;;;4.13;;
64186;SDS011;50491;39.484;-8.540;2023-08-08T07:44:18;10.32;;;4.50;;
64186;SDS011;50491;39.484;-8.540;2023-08-08T07:46:37;6.20;;;3.83;;
64186;SDS011;50491;39.484;-8.540;2023-08-08T07:48:55;7.47;;;4.68;;
64186;SDS011;50491;39.484;-8.540;2023-08-08T07:50:59;6.93;;;4.28;;
64186;SDS011;50491;39.484;-8.540;2023-08-08T07:53:18;10.30;;;3.80;;
64186;SDS011;50491;39.484;-8.540;2023-08-08T07:55:19;6.53;;;4.80;;
64186;SDS011;50491;39.484;-8.540;2023-08-08T07:59:39;11.15;;;4.65;;
64186;SDS011;50491;39.484;-8.540;2023-08-08T08:01:58;11.25;;;4.40;;
64186;SDS011;50491;39.484;-8.540;2023-08-08T08:03:59;14.50;;;4.95;;
64186;SDS011;50491;39.484;-8.540;2023-08-08T08:06:19;11.15;;;4.53;;
64186;SDS011;50491;39.484;-8.540;2023-08-08T08:08:19;14.45;;;5.53;;
64186;SDS011;50491;39.484;-8.540;2023-08-08T08:10:57;11.60;;;4.28;;
64186;SDS011;50491;39.484;-8.540;2023-08-08T08:15:54;14.23;;;5.05;;
64186;SDS011;50491;39.484;-8.540;2023-08-08T08:20:52;9.70;;;3.83;;
64186;SDS011;50491;39.484;-8.540;2023-08-08T08:25:32;8.00;;;4.00;;
64186;SDS011;50491;39.484;-8.540;2023-08-08T08:27:34;18.20;;;4.43;;
64186;SDS011;50491;39.484;-8.540;2023-08-08T08:29:37;11.93;;;3.90;;
64186;SDS011;50491;39.484;-8.540;2023-08-08T08:31:38;11.15;;;4.82;;
64186;SDS011;50491;39.484;-8.540;2023-08-08T08:33:57;8.82;;;3.60;;
64186;SDS011;50491;39.484;-8.540;2023-08-08T08:36:16;11.25;;;3.25;;
64186;SDS011;50491;39.484;-8.540;2023-08-08T08:38:17;10.75;;;3.63;;
64186;SDS011;50491;39.484;-8.540;2023-08-08T08:40:18;8.93;;;3.60;;
64186;SDS011;50491;39.484;-8.540;2023-08-08T08:42:38;6.80;;;3.08;;
64186;SDS011;50491;39.484;-8.540;2023-08-08T08:44:40;6.38;;;2.83;;
64186;SDS011;50491;39.484;-8.540;2023-08-08T08:47:04;8.77;;;3.33;;
64186;SDS011;50491;39.484;-8.540;2023-08-08T08:49:11;10.20;;;2.85;;
64186;SDS011;50491;39.484;-8.540;2023-08-08T08:51:18;12.00;;;2.55;;
64186;SDS011;50491;39.484;-8.540;2023-08-08T08:53:37;6.32;;;2.72;;
64186;SDS011;50491;39.484;-8.540;2023-08-08T08:55:57;8.10;;;2.75;;
64186;SDS011;50491;39.484;-8.540;2023-08-08T08:58:17;7.20;;;2.35;;
64186;SDS011;50491;39.484;-8.540;2023-08-08T09:00:37;9.57;;;2.45;;
64186;SDS011;50491;39.484;-8.540;2023-08-08T09:02:56;7.82;;;2.70;;
64186;SDS011;50491;39.484;-8.540;2023-08-08T09:04:57;14.10;;;2.55;;
64186;SDS011;50491;39.484;-8.540;2023-08-08T09:06:59;7.78;;;2.20;;
64186;SDS011;50491;39.484;-8.540;2023-08-08T09:09:18;7.25;;;2.25;;
64186;SDS011;50491;39.484;-8.540;2023-08-08T09:11:21;12.90;;;2.78;;
64186;SDS011;50491;39.484;-8.540;2023-08-08T09:13:40;9.68;;;2.28;;
64186;SDS011;50491;39.484;-8.540;2023-08-08T09:15:59;5.60;;;1.85;;
64186;SDS011;50491;39.484;-8.540;2023-08-08T09:18:00;8.88;;;2.42;;
64186;SDS011;50491;39.484;-8.540;2023-08-08T09:20:01;9.18;;;2.03;;
64186;SDS011;50491;39.484;-8.540;2023-08-08T09:22:04;11.77;;;2.70;;
64186;SDS011;50491;39.484;-8.540;2023-08-08T09:24:04;7.55;;;2.47;;
64186;SDS011;50491;39.484;-8.540;2023-08-08T09:26:05;10.27;;;2.55;;
64186;SDS011;50491;39.484;-8.540;2023-08-08T09:28:25;5.55;;;3.10;;
64186;SDS011;50491;39.484;-8.540;2023-08-08T09:30:44;13.10;;;2.95;;
64186;SDS011;50491;39.484;-8.540;2023-08-08T09:32:45;7.85;;;2.45;;
64186;SDS011;50491;39.484;-8.540;2023-08-08T09:34:46;16.67;;;2.97;;
64186;SDS011;50491;39.484;-8.540;2023-08-08T09:36:46;4.43;;;2.00;;
64186;SDS011;50491;39.484;-8.540;2023-08-08T09:38:47;8.10;;;2.22;;
64186;SDS011;50491;39.484;-8.540;2023-08-08T09:40:49;9.07;;;3.10;;
64186;SDS011;50491;39.484;-8.540;2023-08-08T09:42:53;5.78;;;2.50;;
64186;SDS011;50491;39.484;-8.540;2023-08-08T09:44:54;6.68;;;1.95;;
64186;SDS011;50491;39.484;-8.540;2023-08-08T09:46:57;11.95;;;2.30;;
64186;SDS011;50491;39.484;-8.540;2023-08-08T09:49:19;6.18;;;1.98;;
64186;SDS011;50491;39.484;-8.540;2023-08-08T09:51:22;4.15;;;1.88;;
64186;SDS011;50491;39.484;-8.540;2023-08-08T09:53:22;12.52;;;3.92;;
64186;SDS011;50491;39.484;-8.540;2023-08-08T09:58:02;7.07;;;2.05;;
64186;SDS011;50491;39.484;-8.540;2023-08-08T10:00:03;8.98;;;2.13;;
64186;SDS011;50491;39.484;-8.540;2023-08-08T10:09:40;8.23;;;3.00;;
64186;SDS011;50491;39.484;-8.540;2023-08-08T10:11:53;9.50;;;2.60;;
64186;SDS011;50491;39.484;-8.540;2023-08-08T10:13:55;7.25;;;2.78;;
64186;SDS011;50491;39.484;-8.540;2023-08-08T10:15:56;7.00;;;2.53;;
64186;SDS011;50491;39.484;-8.540;2023-08-08T10:17:57;6.20;;;2.22;;
64186;SDS011;50491;39.484;-8.540;2023-08-08T10:20:18;9.63;;;2.50;;
64186;SDS011;50491;39.484;-8.540;2023-08-08T10:22:22;8.98;;;3.05;;
64186;SDS011;50491;39.484;-8.540;2023-08-08T10:24:24;4.28;;;1.98;;
64186;SDS011;50491;39.484;-8.540;2023-08-08T10:26:53;6.50;;;2.05;;
64186;SDS011;50491;39.484;-8.540;2023-08-08T10:29:00;13.55;;;2.47;;
64186;SDS011;50491;39.484;-8.540;2023-08-08T10:31:01;9.30;;;2.58;;
64186;SDS011;50491;39.484;-8.540;2023-08-08T10:33:02;9.98;;;2.30;;
64186;SDS011;50491;39.484;-8.540;2023-08-08T10:35:22;12.10;;;2.60;;
64186;SDS011;50491;39.484;-8.540;2023-08-08T10:37:52;4.55;;;2.35;;
64186;SDS011;50491;39.484;-8.540;2023-08-08T10:39:54;8.63;;;2.67;;
64186;SDS011;50491;39.484;-8.540;2023-08-08T10:42:00;7.70;;;2.33;;
64186;SDS011;50491;39.484;-8.540;2023-08-08T10:44:08;13.73;;;2.50;;
64186;SDS011;50491;39.484;-8.540;2023-08-08T10:49:11;5.43;;;2.10;;
64186;SDS011;50491;39.484;-8.540;2023-08-08T10:51:15;7.17;;;2.20;;
64186;SDS011;50491;39.484;-8.540;2023-08-08T10:53:15;7.03;;;2.38;;
64186;SDS011;50491;39.484;-8.540;2023-08-08T10:55:23;5.75;;;1.90;;
64186;SDS011;50491;39.484;-8.540;2023-08-08T10:57:27;8.18;;;2.33;;
64186;SDS011;50491;39.484;-8.540;2023-08-08T10:59:35;8.23;;;2.40;;
64186;SDS011;50491;39.484;-8.540;2023-08-08T11:01:56;6.05;;;2.22;;
64186;SDS011;50491;39.484;-8.540;2023-08-08T11:06:35;3.50;;;1.90;;
64186;SDS011;50491;39.484;-8.540;2023-08-08T11:08:36;12.30;;;2.85;;
64186;SDS011;50491;39.484;-8.540;2023-08-08T11:10:38;9.80;;;2.25;;
64186;SDS011;50491;39.484;-8.540;2023-08-08T11:13:02;9.65;;;2.83;;
64186;SDS011;50491;39.484;-8.540;2023-08-08T11:15:22;11.07;;;2.38;;
64186;SDS011;50491;39.484;-8.540;2023-08-08T11:17:42;11.75;;;2.65;;
64186;SDS011;50491;39.484;-8.540;2023-08-08T11:20:01;6.05;;;2.17;;
64186;SDS011;50491;39.484;-8.540;2023-08-08T11:24:59;10.45;;;2.08;;
64186;SDS011;50491;39.484;-8.540;2023-08-08T11:30:35;5.93;;;2.13;;
64186;SDS011;50491;39.484;-8.540;2023-08-08T11:32:38;5.10;;;1.73;;
64186;SDS011;50491;39.484;-8.540;2023-08-08T11:34:57;9.80;;;2.33;;
64186;SDS011;50491;39.484;-8.540;2023-08-08T11:37:17;7.28;;;2.17;;
64186;SDS011;50491;39.484;-8.540;2023-08-08T11:39:19;6.53;;;1.40;;
64186;SDS011;50491;39.484;-8.540;2023-08-08T11:41:39;7.22;;;1.90;;
64186;SDS011;50491;39.484;-8.540;2023-08-08T11:46:22;6.63;;;2.28;;
64186;SDS011;50491;39.484;-8.540;2023-08-08T11:48:41;11.07;;;2.63;;
64186;SDS011;50491;39.484;-8.540;2023-08-08T11:51:03;6.32;;;2.17;;
64186;SDS011;50491;39.484;-8.540;2023-08-08T11:53:07;10.52;;;2.20;;
64186;SDS011;50491;39.484;-8.540;2023-08-08T11:55:08;9.00;;;2.05;;
64186;SDS011;50491;39.484;-8.540;2023-08-08T11:57:10;7.97;;;2.38;;
64186;SDS011;50491;39.484;-8.540;2023-08-08T12:01:49;4.68;;;1.70;;
64186;SDS011;50491;39.484;-8.540;2023-08-08T12:06:28;6.07;;;2.10;;
64186;SDS011;50491;39.484;-8.540;2023-08-08T12:08:29;11.70;;;2.45;;
64186;SDS011;50491;39.484;-8.540;2023-08-08T12:10:51;10.75;;;2.88;;
64186;SDS011;50491;39.484;-8.540;2023-08-08T12:13:31;4.88;;;2.55;;
64186;SDS011;50491;39.484;-8.540;2023-08-08T12:15:33;9.30;;;2.33;;
64186;SDS011;50491;39.484;-8.540;2023-08-08T12:17:37;5.13;;;1.80;;
64186;SDS011;50491;39.484;-8.540;2023-08-08T12:19:44;5.82;;;2.00;;
64186;SDS011;50491;39.484;-8.540;2023-08-08T12:25:01;5.55;;;2.00;;
64186;SDS011;50491;39.484;-8.540;2023-08-08T12:27:38;8.27;;;2.17;;
64186;SDS011;50491;39.484;-8.540;2023-08-08T12:29:58;9.02;;;2.15;;
64186;SDS011;50491;39.484;-8.540;2023-08-08T12:32:19;15.93;;;2.70;;
64186;SDS011;50491;39.484;-8.540;2023-08-08T12:34:39;8.25;;;2.38;;
64186;SDS011;50491;39.484;-8.540;2023-08-08T12:36:58;7.65;;;2.38;;
64186;SDS011;50491;39.484;-8.540;2023-08-08T12:38:58;8.35;;;2.08;;
64186;SDS011;50491;39.484;-8.540;2023-08-08T12:41:00;9.15;;;2.00;;
64186;SDS011;50491;39.484;-8.540;2023-08-08T12:43:01;5.35;;;1.88;;
64186;SDS011;50491;39.484;-8.540;2023-08-08T12:45:01;6.15;;;2.00;;
64186;SDS011;50491;39.484;-8.540;2023-08-08T12:47:01;9.65;;;2.67;;
64186;SDS011;50491;39.484;-8.540;2023-08-08T12:49:21;5.35;;;1.70;;
64186;SDS011;50491;39.484;-8.540;2023-08-08T12:51:21;8.30;;;1.80;;
64186;SDS011;50491;39.484;-8.540;2023-08-08T12:53:22;4.65;;;1.70;;
64186;SDS011;50491;39.484;-8.540;2023-08-08T12:55:22;9.48;;;2.42;;
64186;SDS011;50491;39.484;-8.540;2023-08-08T12:57:23;9.95;;;2.30;;
64186;SDS011;50491;39.484;-8.540;2023-08-08T12:59:25;8.00;;;1.80;;
64186;SDS011;50491;39.484;-8.540;2023-08-08T13:01:26;7.93;;;2.38;;
64186;SDS011;50491;39.484;-8.540;2023-08-08T13:03:27;10.40;;;2.42;;
64186;SDS011;50491;39.484;-8.540;2023-08-08T13:05:28;9.18;;;2.15;;
64186;SDS011;50491;39.484;-8.540;2023-08-08T13:07:28;8.13;;;2.55;;
64186;SDS011;50491;39.484;-8.540;2023-08-08T13:09:29;8.55;;;2.40;;
64186;SDS011;50491;39.484;-8.540;2023-08-08T13:11:30;7.55;;;2.10;;
64186;SDS011;50491;39.484;-8.540;2023-08-08T13:13:31;8.02;;;2.40;;
64186;SDS011;50491;39.484;-8.540;2023-08-08T13:15:31;8.13;;;2.13;;
64186;SDS011;50491;39.484;-8.540;2023-08-08T13:17:32;7.70;;;2.28;;
64186;SDS011;50491;39.484;-8.540;2023-08-08T13:19:33;7.75;;;2.47;;
64186;SDS011;50491;39.484;-8.540;2023-08-08T13:21:52;7.68;;;1.92;;
64186;SDS011;50491;39.484;-8.540;2023-08-08T13:23:54;8.02;;;1.98;;
64186;SDS011;50491;39.484;-8.540;2023-08-08T13:26:13;8.57;;;2.63;;
64186;SDS011;50491;39.484;-8.540;2023-08-08T13:28:13;9.57;;;2.20;;
64186;SDS011;50491;39.484;-8.540;2023-08-08T13:30:14;9.68;;;2.28;;
64186;SDS011;50491;39.484;-8.540;2023-08-08T13:32:16;6.72;;;1.98;;
64186;SDS011;50491;39.484;-8.540;2023-08-08T13:34:35;8.20;;;2.60;;
64186;SDS011;50491;39.484;-8.540;2023-08-08T13:36:54;6.82;;;2.30;;
64186;SDS011;50491;39.484;-8.540;2023-08-08T13:38:55;9.18;;;2.30;;
64186;SDS011;50491;39.484;-8.540;2023-08-08T13:40:56;6.35;;;1.90;;
64186;SDS011;50491;39.484;-8.540;2023-08-08T13:43:15;5.68;;;1.95;;
64186;SDS011;50491;39.484;-8.540;2023-08-08T13:45:34;8.98;;;3.35;;
64186;SDS011;50491;39.484;-8.540;2023-08-08T13:47:55;6.93;;;2.30;;
64186;SDS011;50491;39.484;-8.540;2023-08-08T13:50:14;8.02;;;2.15;;
64186;SDS011;50491;39.484;-8.540;2023-08-08T13:52:33;7.22;;;2.50;;
64186;SDS011;50491;39.484;-8.540;2023-08-08T13:54:52;4.53;;;1.67;;
64186;SDS011;50491;39.484;-8.540;2023-08-08T13:56:55;8.90;;;2.08;;
64186;SDS011;50491;39.484;-8.540;2023-08-08T13:58:55;8.18;;;1.88;;
64186;SDS011;50491;39.484;-8.540;2023-08-08T14:03:34;4.47;;;2.00;;
64186;SDS011;50491;39.484;-8.540;2023-08-08T14:05:37;5.63;;;1.63;;
64186;SDS011;50491;39.484;-8.540;2023-08-08T14:07:38;6.47;;;1.80;;
64186;SDS011;50491;39.484;-8.540;2023-08-08T14:17:40;5.95;;;1.42;;
64186;SDS011;50491;39.484;-8.540;2023-08-08T14:19:59;5.07;;;1.50;;
64186;SDS011;50491;39.484;-8.540;2023-08-08T14:22:00;9.25;;;2.10;;
64186;SDS011;50491;39.484;-8.540;2023-08-08T14:24:16;8.57;;;1.52;;
64186;SDS011;50491;39.484;-8.540;2023-08-08T14:26:16;6.95;;;1.60;;
64186;SDS011;50491;39.484;-8.540;2023-08-08T14:28:17;7.43;;;2.08;;
64186;SDS011;50491;39.484;-8.540;2023-08-08T14:33:14;8.43;;;1.80;;
64186;SDS011;50491;39.484;-8.540;2023-08-08T14:35:15;5.75;;;1.67;;
64186;SDS011;50491;39.484;-8.540;2023-08-08T14:37:25;5.55;;;1.58;;
64186;SDS011;50491;39.484;-8.540;2023-08-08T14:39:26;7.18;;;2.95;;
64186;SDS011;50491;39.484;-8.540;2023-08-08T14:41:27;6.05;;;1.90;;
64186;SDS011;50491;39.484;-8.540;2023-08-08T14:43:46;7.10;;;2.10;;
64186;SDS011;50491;39.484;-8.540;2023-08-08T14:46:05;9.68;;;1.80;;
64186;SDS011;50491;39.484;-8.540;2023-08-08T14:48:24;36.67;;;3.40;;
64186;SDS011;50491;39.484;-8.540;2023-08-08T14:50:43;11.82;;;2.47;;
64186;SDS011;50491;39.484;-8.540;2023-08-08T14:53:03;10.10;;;1.90;;
64186;SDS011;50491;39.484;-8.540;2023-08-08T14:55:04;8.13;;;1.90;;
64186;SDS011;50491;39.484;-8.540;2023-08-08T14:57:23;7.28;;;1.70;;
64186;SDS011;50491;39.484;-8.540;2023-08-08T14:59:43;7.45;;;1.88;;
64186;SDS011;50491;39.484;-8.540;2023-08-08T15:01:44;9.40;;;2.10;;